Time;durP1;ratioP1;P1;durP2;ratioP2;P2;SDS_P1;SDS_P2;PMS_P1;PMS_P2;Temp;Humidity;BMP_temperature;BMP_pressure;BME280_temperature;BME280_humidity;BME280_pressure;Samples;Min_cycle;Max_cycle;Signal;HPM_P1;HPM_P2
2022/05/01 00:00:57;;;;;;;13.32;9.02;;;6.40;99.90;;;;;;5060698;28;20139;-73
2022/05/01 00:03:31;;;;;;;13.52;8.88;;;6.70;99.90;;;;;;5077465;28;20052;-72
2022/05/01 00:05:58;;;;;;;12.40;8.63;;;7.00;99.90;;;;;;5077405;28;20063;-72
2022/05/01 00:08:24;;;;;;;13.57;8.73;;;6.60;99.90;;;;;;5094440;28;20084;-73
2022/05/01 00:10:50;;;;;;;13.80;9.63;;;6.70;99.90;;;;;;5077155;28;20083;-72
2022/05/01 00:13:16;;;;;;;14.18;9.65;;;6.70;99.90;;;;;;5094254;28;20472;-73
2022/05/01 00:15:45;;;;;;;13.35;9.90;;;6.70;99.90;;;;;;5076269;28;20044;-73
2022/05/01 00:18:10;;;;;;;12.77;9.20;;;6.70;99.90;;;;;;5076383;28;20051;-73
2022/05/01 00:20:36;;;;;;;12.82;8.68;;;6.80;99.90;;;;;;5094169;28;20048;-73
2022/05/01 00:23:02;;;;;;;13.40;9.35;;;6.70;99.90;;;;;;5094208;28;20044;-73
2022/05/01 00:25:28;;;;;;;12.88;9.27;;;6.70;99.90;;;;;;5076007;28;20048;-73
2022/05/01 00:27:55;;;;;;;13.70;8.77;;;6.70;99.90;;;;;;5076268;28;20062;-72
2022/05/01 00:30:21;;;;;;;12.95;10.23;;;6.60;99.90;;;;;;5075982;28;20480;-73
2022/05/01 00:38:15;;;;;;;13.35;10.02;;;6.70;99.90;;;;;;5094039;28;20052;-73
2022/05/01 00:40:41;;;;;;;13.93;9.15;;;6.70;99.90;;;;;;5093874;28;20543;-72
2022/05/01 00:43:06;;;;;;;12.40;9.43;;;6.60;99.90;;;;;;5093526;28;20043;-73
2022/05/01 00:45:33;;;;;;;13.93;9.93;;;6.60;99.90;;;;;;5093853;28;20048;-73
2022/05/01 00:47:59;;;;;;;12.15;9.27;;;6.60;99.90;;;;;;5076875;28;20056;-73
2022/05/01 00:50:25;;;;;;;13.38;9.73;;;6.90;99.90;;;;;;5075469;28;20154;-73
2022/05/01 00:52:52;;;;;;;13.52;9.50;;;7.10;99.90;;;;;;5075705;28;20127;-72
2022/05/01 00:55:18;;;;;;;15.38;9.60;;;6.70;99.90;;;;;;5058877;28;20553;-72
2022/05/01 00:57:48;;;;;;;12.00;8.90;;;6.60;99.90;;;;;;5093686;28;20059;-72
2022/05/01 01:00:16;;;;;;;13.27;10.00;;;6.60;99.90;;;;;;5076609;28;20040;-73
2022/05/01 01:02:42;;;;;;;11.20;8.65;;;6.50;99.90;;;;;;5093614;28;20052;-72
2022/05/01 01:05:08;;;;;;;12.75;9.30;;;6.40;99.90;;;;;;5059155;28;20123;-73
2022/05/01 01:07:35;;;;;;;12.63;9.75;;;6.50;99.90;;;;;;5075819;28;20531;-72
2022/05/01 01:10:01;;;;;;;15.20;9.98;;;6.50;99.90;;;;;;5075634;28;20087;-73
2022/05/01 01:15:11;;;;;;;14.88;10.52;;;6.30;99.90;;;;;;5076572;28;20048;-73
2022/05/01 01:17:42;;;;;;;15.73;10.55;;;6.50;99.90;;;;;;5075117;28;20117;-73
2022/05/01 01:20:17;;;;;;;17.17;11.30;;;6.40;99.90;;;;;;5075454;28;20051;-72
2022/05/01 01:22:44;;;;;;;15.52;10.73;;;6.30;99.90;;;;;;5093725;28;20040;-73
2022/05/01 01:25:10;;;;;;;17.10;10.82;;;6.20;99.90;;;;;;5075669;28;20471;-73
2022/05/01 01:27:40;;;;;;;17.95;11.00;;;6.90;99.90;;;;;;5076096;28;20055;-73
2022/05/01 01:32:53;;;;;;;16.05;10.50;;;6.20;99.90;;;;;;5075836;28;20059;-73
2022/05/01 01:35:22;;;;;;;14.32;10.45;;;6.40;99.90;;;;;;5093676;28;20040;-73
2022/05/01 01:37:49;;;;;;;14.55;10.10;;;6.50;99.90;;;;;;5093462;28;20544;-72
2022/05/01 01:40:23;;;;;;;13.23;10.48;;;6.00;99.90;;;;;;5093118;28;20095;-73
2022/05/01 01:42:50;;;;;;;13.05;9.80;;;6.10;99.90;;;;;;5058769;28;20084;-73
2022/05/01 01:45:16;;;;;;;13.45;9.45;;;6.80;99.90;;;;;;5075446;28;20059;-73
2022/05/01 01:47:44;;;;;;;14.75;10.73;;;6.00;99.90;;;;;;5075422;28;20048;-72
2022/05/01 01:50:12;;;;;;;13.52;10.45;;;6.00;99.90;;;;;;5093748;28;20044;-73
2022/05/01 01:52:38;;;;;;;15.70;11.07;;;6.20;99.90;;;;;;5079082;28;20059;-73
2022/05/01 01:55:04;;;;;;;13.57;10.00;;;5.90;99.90;;;;;;5078979;28;20048;-73
2022/05/01 01:57:29;;;;;;;15.93;10.82;;;5.80;99.90;;;;;;5045920;28;20044;-73
2022/05/01 01:59:55;;;;;;;14.45;10.63;;;5.50;99.90;;;;;;5096811;28;20059;-73
2022/05/01 02:02:21;;;;;;;17.48;11.00;;;5.90;99.90;;;;;;5096870;28;20047;-72
2022/05/01 02:04:47;;;;;;;12.98;9.80;;;5.80;99.90;;;;;;5078994;28;20040;-73
2022/05/01 02:07:12;;;;;;;14.30;11.30;;;5.90;99.90;;;;;;5079759;28;20044;-73
2022/05/01 02:09:38;;;;;;;14.13;10.68;;;5.50;99.90;;;;;;5079273;28;20384;-73
2022/05/01 02:12:08;;;;;;;13.80;10.60;;;5.50;99.90;;;;;;5078880;28;20056;-72
2022/05/01 02:14:34;;;;;;;13.73;9.95;;;5.60;99.90;;;;;;5061896;28;20044;-73
2022/05/01 02:17:02;;;;;;;16.35;11.40;;;5.60;99.90;;;;;;5097179;28;20094;-72
2022/05/01 02:19:29;;;;;;;17.02;11.50;;;5.40;99.90;;;;;;5063154;28;20136;-73
2022/05/01 02:21:55;;;;;;;16.02;10.10;;;5.30;99.90;;;;;;5096427;28;20083;-73
2022/05/01 02:24:23;;;;;;;14.35;10.57;;;5.50;99.90;;;;;;5078623;28;20098;-73
2022/05/01 02:26:49;;;;;;;15.25;10.75;;;5.40;99.90;;;;;;5078327;28;20040;-72
2022/05/01 02:29:15;;;;;;;15.30;10.93;;;5.90;99.90;;;;;;5078548;28;20097;-73
2022/05/01 02:31:43;;;;;;;15.38;10.98;;;5.30;99.90;;;;;;5061759;28;20127;-73
2022/05/01 02:34:12;;;;;;;14.50;10.63;;;5.40;99.90;;;;;;5078277;28;20083;-72
2022/05/01 02:36:39;;;;;;;13.73;10.50;;;5.30;99.90;;;;;;5078030;28;20040;-73
2022/05/01 02:39:05;;;;;;;13.23;10.20;;;5.40;99.90;;;;;;5057843;28;20454;-73
2022/05/01 02:41:31;;;;;;;17.40;11.98;;;5.30;99.90;;;;;;5091575;28;20044;-72
2022/05/01 02:43:58;;;;;;;16.85;11.48;;;5.60;99.90;;;;;;5075072;28;20396;-73
2022/05/01 02:46:26;;;;;;;16.42;10.48;;;5.20;99.90;;;;;;5075811;28;20119;-73
2022/05/01 02:48:52;;;;;;;16.13;11.13;;;5.20;99.90;;;;;;5075100;28;20048;-72
2022/05/01 02:51:18;;;;;;;15.20;11.02;;;5.30;99.90;;;;;;5075316;28;20418;-72
2022/05/01 02:53:44;;;;;;;15.55;10.93;;;5.40;99.90;;;;;;5075698;28;20442;-73
2022/05/01 02:56:09;;;;;;;17.92;13.18;;;5.00;99.90;;;;;;5075932;28;20044;-73
2022/05/01 02:58:35;;;;;;;17.50;13.70;;;5.90;99.90;;;;;;5075876;28;20056;-72
2022/05/01 03:01:01;;;;;;;16.95;13.13;;;5.00;99.90;;;;;;5074749;28;20491;-73
2022/05/01 03:03:27;;;;;;;21.35;13.65;;;5.20;99.90;;;;;;5075062;28;20113;-72
2022/05/01 03:05:53;;;;;;;21.55;13.93;;;6.10;99.90;;;;;;5075687;28;20044;-73
2022/05/01 03:08:20;;;;;;;15.95;12.02;;;5.60;99.90;;;;;;5075483;28;20048;-73
2022/05/01 03:10:46;;;;;;;18.75;13.32;;;5.10;99.90;;;;;;5075339;28;20047;-73
2022/05/01 03:13:12;;;;;;;17.35;13.00;;;5.30;99.90;;;;;;5075249;28;20084;-73
2022/05/01 03:15:38;;;;;;;18.90;13.80;;;5.00;99.90;;;;;;5075330;28;20133;-73
2022/05/01 03:23:32;;;;;;;20.52;14.82;;;4.90;99.90;;;;;;5075973;28;20389;-72
2022/05/01 03:25:58;;;;;;;18.55;14.25;;;4.90;99.90;;;;;;5073835;28;20070;-73
2022/05/01 03:28:24;;;;;;;19.50;14.23;;;4.70;99.90;;;;;;5057433;28;20369;-73
2022/05/01 03:30:52;;;;;;;21.00;15.00;;;4.60;99.90;;;;;;5040780;28;20045;-73
2022/05/01 03:33:21;;;;;;;18.77;14.02;;;4.80;99.90;;;;;;5074893;28;20055;-72
2022/05/01 03:35:47;;;;;;;18.98;14.38;;;5.40;99.90;;;;;;5058029;28;20051;-72
2022/05/01 03:38:13;;;;;;;19.05;14.27;;;4.70;99.90;;;;;;5056584;28;20125;-72
2022/05/01 03:40:38;;;;;;;20.98;14.40;;;4.90;99.90;;;;;;5040287;28;20088;-72
2022/05/01 03:43:04;;;;;;;19.77;14.77;;;4.60;99.90;;;;;;5057534;28;20048;-73
2022/05/01 03:45:30;;;;;;;19.05;14.23;;;5.40;99.90;;;;;;5074709;28;20055;-72
2022/05/01 03:47:56;;;;;;;20.70;14.63;;;4.90;99.90;;;;;;5073449;28;20080;-73
2022/05/01 03:50:22;;;;;;;20.75;15.50;;;5.20;99.90;;;;;;5040315;28;20076;-73
2022/05/01 03:52:48;;;;;;;19.83;14.52;;;6.10;99.90;;;;;;5074540;28;20123;-72
2022/05/01 03:55:13;;;;;;;21.83;14.95;;;4.50;99.90;;;;;;5056686;28;20561;-73
2022/05/01 03:57:40;;;;;;;19.35;15.27;;;4.50;99.90;;;;;;5072950;28;20048;-72
2022/05/01 04:00:10;;;;;;;20.20;12.82;;;4.70;99.90;;;;;;5074353;28;20044;-73
2022/05/01 04:02:43;;;;;;;17.50;12.77;;;4.60;99.90;;;;;;5074198;28;20482;-72
2022/05/01 04:05:09;;;;;;;19.80;13.50;;;4.40;99.90;;;;;;5074115;28;20048;-73
2022/05/01 04:07:35;;;;;;;17.80;12.27;;;4.80;99.90;;;;;;5074230;28;20283;-73
2022/05/01 04:10:01;;;;;;;15.45;11.32;;;5.30;99.90;;;;;;5074284;28;20047;-73
2022/05/01 04:12:27;;;;;;;15.10;11.40;;;4.60;99.90;;;;;;5073212;28;20052;-72
2022/05/01 04:14:53;;;;;;;17.48;12.20;;;4.50;99.90;;;;;;5072616;28;20048;-73
2022/05/01 04:17:18;;;;;;;17.92;12.43;;;4.50;99.90;;;;;;5073212;28;20079;-73
2022/05/01 04:19:44;;;;;;;17.70;12.48;;;5.80;99.90;;;;;;5072901;28;20392;-73
2022/05/01 04:22:10;;;;;;;19.60;12.98;;;4.40;99.90;;;;;;5074262;28;20062;-73
2022/05/01 04:24:35;;;;;;;20.08;13.65;;;4.60;99.90;;;;;;5056116;28;20071;-73
2022/05/01 04:27:04;;;;;;;18.10;13.13;;;4.10;99.90;;;;;;5073959;28;20044;-73
2022/05/01 04:29:39;;;;;;;19.35;13.23;;;4.30;99.90;;;;;;5073523;28;20075;-73
2022/05/01 04:32:06;;;;;;;17.45;12.77;;;4.20;99.90;;;;;;5074558;28;20051;-73
2022/05/01 04:34:33;;;;;;;19.80;13.57;;;4.30;99.90;;;;;;5073283;28;20037;-73
2022/05/01 04:36:59;;;;;;;18.20;12.80;;;4.40;99.90;;;;;;5072763;28;20044;-73
2022/05/01 04:39:25;;;;;;;20.38;13.63;;;4.00;99.90;;;;;;5093506;28;20083;-73
2022/05/01 04:41:51;;;;;;;18.08;13.05;;;4.20;99.90;;;;;;5076246;28;20043;-73
2022/05/01 04:44:17;;;;;;;20.00;12.50;;;5.00;99.90;;;;;;5059102;28;20503;-73
2022/05/01 04:46:43;;;;;;;18.70;13.27;;;4.20;99.90;;;;;;5076203;28;20155;-73
2022/05/01 04:49:09;;;;;;;18.40;13.02;;;4.40;99.90;;;;;;5059759;28;20051;-73
2022/05/01 04:51:35;;;;;;;19.73;14.20;;;4.30;99.90;;;;;;5059054;28;20055;-73
2022/05/01 04:54:01;;;;;;;17.77;13.02;;;4.20;99.90;;;;;;5094289;28;20054;-73
2022/05/01 04:59:10;;;;;;;19.80;14.25;;;5.60;99.90;;;;;;5075938;28;20052;-73
2022/05/01 05:01:36;;;;;;;18.77;13.48;;;4.50;99.90;;;;;;5075700;28;20040;-73
2022/05/01 05:04:03;;;;;;;17.08;11.93;;;4.50;99.90;;;;;;5094543;28;20040;-73
2022/05/01 05:06:30;;;;;;;17.08;12.18;;;4.40;99.90;;;;;;5059112;28;20051;-73
2022/05/01 05:11:40;;;;;;;18.27;12.80;;;5.00;99.90;;;;;;5078958;28;20040;-73
2022/05/01 05:14:06;;;;;;;19.20;12.73;;;5.30;99.90;;;;;;5093516;28;20065;-73
2022/05/01 05:16:32;;;;;;;18.23;12.52;;;4.30;99.90;;;;;;5075755;28;20048;-73
2022/05/01 05:18:57;;;;;;;14.20;10.60;;;4.70;99.90;;;;;;5075576;28;20408;-73
2022/05/01 05:21:23;;;;;;;17.45;12.30;;;4.50;99.90;;;;;;5093789;28;20040;-73
2022/05/01 05:23:48;;;;;;;16.08;11.63;;;4.90;99.90;;;;;;5093782;28;20044;-73
2022/05/01 05:26:14;;;;;;;16.50;12.02;;;5.60;99.90;;;;;;5095957;28;20591;-73
2022/05/01 05:28:40;;;;;;;15.68;11.90;;;4.90;99.90;;;;;;5079458;28;20052;-73
2022/05/01 05:31:06;;;;;;;20.13;12.93;;;5.00;99.90;;;;;;5079673;28;20131;-73
2022/05/01 05:33:31;;;;;;;15.15;11.50;;;4.90;99.90;;;;;;5046355;28;20056;-73
2022/05/01 05:35:57;;;;;;;18.25;12.27;;;5.20;99.90;;;;;;5063601;28;20087;-73
2022/05/01 05:38:22;;;;;;;16.70;11.85;;;5.20;99.90;;;;;;5098107;28;20060;-73
2022/05/01 05:40:48;;;;;;;17.02;11.75;;;5.30;99.90;;;;;;5097500;28;20051;-73
2022/05/01 05:43:14;;;;;;;17.48;12.20;;;5.40;99.90;;;;;;5079744;28;20086;-73
2022/05/01 05:45:39;;;;;;;19.48;12.57;;;5.70;99.90;;;;;;5079375;28;20044;-73
2022/05/01 05:48:06;;;;;;;16.50;11.27;;;5.70;99.90;;;;;;5079347;28;20073;-73
2022/05/01 05:50:32;;;;;;;16.83;11.45;;;5.70;99.90;;;;;;5063314;28;20465;-73
2022/05/01 05:52:58;;;;;;;15.80;10.93;;;5.80;99.90;;;;;;5063367;28;20048;-73
2022/05/01 05:55:23;;;;;;;15.05;10.48;;;6.00;99.90;;;;;;5079054;28;20123;-73
2022/05/01 05:57:49;;;;;;;13.98;10.38;;;6.00;99.90;;;;;;5062568;28;20048;-73
2022/05/01 06:00:15;;;;;;;14.18;10.40;;;5.90;99.90;;;;;;5079866;28;20112;-73
2022/05/01 06:02:41;;;;;;;14.15;10.57;;;5.90;99.90;;;;;;5097168;28;20471;-73
2022/05/01 06:05:07;;;;;;;12.00;9.88;;;6.40;99.90;;;;;;5079109;28;20101;-74
2022/05/01 06:07:33;;;;;;;12.23;9.48;;;6.10;99.90;;;;;;5079206;28;20075;-73
2022/05/01 06:09:59;;;;;;;13.18;9.73;;;6.20;99.90;;;;;;5096473;28;20487;-73
2022/05/01 06:12:25;;;;;;;11.65;8.65;;;6.40;99.90;;;;;;5046154;28;20410;-74
2022/05/01 06:14:51;;;;;;;13.38;8.95;;;6.40;99.90;;;;;;5096653;28;20059;-74
2022/05/01 06:17:17;;;;;;;12.05;8.45;;;6.70;99.90;;;;;;5078473;28;20048;-74
2022/05/01 06:19:43;;;;;;;11.55;8.88;;;6.50;99.90;;;;;;5079529;28;20047;-74
2022/05/01 06:22:08;;;;;;;10.82;8.13;;;6.90;99.90;;;;;;5097234;28;20043;-74
2022/05/01 06:24:34;;;;;;;11.73;8.57;;;7.60;99.90;;;;;;5096530;28;20476;-74
2022/05/01 06:27:00;;;;;;;14.65;9.48;;;6.70;99.90;;;;;;5078484;28;20051;-74
2022/05/01 06:29:25;;;;;;;12.95;8.80;;;6.90;99.90;;;;;;5078834;28;20138;-74
2022/05/01 06:31:52;;;;;;;10.45;8.10;;;7.10;99.90;;;;;;5096409;28;20075;-74
2022/05/01 06:34:18;;;;;;;13.48;8.80;;;7.00;99.90;;;;;;5097135;28;20109;-74
2022/05/01 06:36:44;;;;;;;11.23;8.50;;;7.10;99.90;;;;;;5077871;28;20090;-74
2022/05/01 06:39:11;;;;;;;10.70;8.68;;;7.20;99.90;;;;;;5057785;28;20084;-74
2022/05/01 06:41:40;;;;;;;12.23;8.60;;;7.30;99.90;;;;;;5074673;28;20176;-73
2022/05/01 06:44:06;;;;;;;11.73;8.40;;;7.30;99.90;;;;;;5075787;28;20040;-74
2022/05/01 06:46:32;;;;;;;10.02;7.55;;;7.40;99.90;;;;;;5058251;28;20113;-73
2022/05/01 06:48:58;;;;;;;11.68;7.78;;;7.50;99.90;;;;;;5075877;28;20052;-73
2022/05/01 06:51:23;;;;;;;10.73;7.65;;;7.50;99.90;;;;;;5074613;28;20393;-73
2022/05/01 06:53:49;;;;;;;10.82;8.50;;;7.70;99.90;;;;;;5075695;28;20052;-74
2022/05/01 06:56:15;;;;;;;10.75;8.00;;;7.60;99.90;;;;;;5074668;28;20088;-73
2022/05/01 06:58:40;;;;;;;10.32;7.30;;;8.20;99.90;;;;;;5076450;28;20048;-73
2022/05/01 07:01:07;;;;;;;12.25;9.10;;;7.70;99.90;;;;;;5058590;28;20365;-73
2022/05/01 07:03:34;;;;;;;10.70;7.93;;;8.10;99.90;;;;;;5076482;28;20117;-73
2022/05/01 07:06:02;;;;;;;9.75;7.57;;;7.90;99.90;;;;;;5074412;28;20453;-73
2022/05/01 07:08:28;;;;;;;9.15;6.95;;;7.90;99.90;;;;;;5076044;28;20055;-74
2022/05/01 07:10:54;;;;;;;9.48;7.65;;;8.50;99.90;;;;;;5075372;28;20048;-73
2022/05/01 07:13:20;;;;;;;8.57;6.93;;;8.10;99.90;;;;;;5074267;28;20047;-73
2022/05/01 07:15:45;;;;;;;10.75;6.88;;;8.00;99.90;;;;;;5074155;28;20056;-73
2022/05/01 07:18:12;;;;;;;10.00;7.28;;;8.10;99.90;;;;;;5075750;28;20076;-73
2022/05/01 07:20:37;;;;;;;9.38;6.85;;;8.10;99.90;;;;;;5074009;28;20048;-73
2022/05/01 07:23:03;;;;;;;7.20;4.38;;;8.40;99.90;;;;;;5073953;28;20400;-73
2022/05/01 07:25:30;;;;;;;7.10;3.92;;;8.20;99.90;;;;;;5075082;28;20170;-73
2022/05/01 07:27:56;;;;;;;8.52;5.57;;;8.30;99.90;;;;;;5074053;28;20559;-73
2022/05/01 07:30:21;;;;;;;8.90;5.63;;;8.30;99.90;;;;;;5073804;28;20154;-72
2022/05/01 07:32:47;;;;;;;6.70;5.43;;;8.40;99.90;;;;;;5074843;28;20047;-72
2022/05/01 07:35:13;;;;;;;7.30;5.30;;;8.40;99.90;;;;;;5074332;28;20052;-73
2022/05/01 07:37:38;;;;;;;7.45;5.85;;;8.30;99.90;;;;;;5075066;28;20118;-73
2022/05/01 07:40:05;;;;;;;8.77;5.70;;;8.60;99.90;;;;;;5095648;28;20051;-73
2022/05/01 07:42:30;;;;;;;7.03;5.45;;;8.60;99.90;;;;;;5094823;28;20484;-72
2022/05/01 07:44:56;;;;;;;6.97;5.53;;;8.60;99.90;;;;;;5095298;28;20101;-72
2022/05/01 07:47:22;;;;;;;9.93;5.50;;;8.70;99.90;;;;;;5095018;28;20552;-72
2022/05/01 07:49:47;;;;;;;6.28;5.13;;;8.80;99.90;;;;;;5076922;28;20502;-72
2022/05/01 07:52:13;;;;;;;8.95;5.72;;;8.80;99.90;;;;;;5060336;28;20051;-72
2022/05/01 07:54:39;;;;;;;6.93;4.97;;;8.90;99.90;;;;;;5077136;28;20091;-72
2022/05/01 07:57:07;;;;;;;9.23;5.78;;;9.00;99.90;;;;;;5060962;28;20044;-72
2022/05/01 07:59:32;;;;;;;6.25;4.15;;;9.10;99.90;;;;;;5076982;28;20055;-72
2022/05/01 08:01:58;;;;;;;5.35;4.13;;;9.90;99.90;;;;;;5094689;28;20036;-72
2022/05/01 08:04:29;;;;;;;6.97;4.93;;;9.20;99.90;;;;;;5076947;28;20044;-72
2022/05/01 08:07:02;;;;;;;7.45;4.55;;;9.30;99.90;;;;;;5095276;28;20086;-72
2022/05/01 08:09:29;;;;;;;;;;;9.30;99.90;;;;;;5043901;28;20115;-72
2022/05/01 08:11:55;;;;;;;7.00;4.07;;;9.40;99.90;;;;;;5059954;28;20014;-72
2022/05/01 08:14:21;;;;;;;5.55;4.38;;;9.40;99.90;;;;;;5094762;28;20052;-73
2022/05/01 08:16:48;;;;;;;7.47;4.50;;;9.40;99.90;;;;;;5076609;28;20479;-72
2022/05/01 08:21:58;;;;;;;6.43;4.35;;;9.50;99.90;;;;;;5075970;28;20088;-71
2022/05/01 08:24:24;;;;;;;5.95;3.95;;;9.60;99.90;;;;;;5094939;28;20086;-73
2022/05/01 08:26:50;;;;;;;5.85;4.03;;;9.70;99.90;;;;;;5059826;28;20044;-74
2022/05/01 08:29:16;;;;;;;5.90;4.13;;;9.80;99.90;;;;;;5094853;28;20048;-74
2022/05/01 08:31:43;;;;;;;5.72;4.20;;;9.80;99.90;;;;;;5059807;28;20052;-74
2022/05/01 08:34:09;;;;;;;4.70;3.72;;;9.80;99.90;;;;;;5077230;28;20067;-74
2022/05/01 08:36:36;;;;;;;5.97;3.90;;;9.80;99.90;;;;;;5094231;28;20063;-74
2022/05/01 08:39:03;;;;;;;6.22;4.15;;;9.90;99.90;;;;;;5075965;28;20056;-74
2022/05/01 08:41:31;;;;;;;5.32;4.13;;;9.90;99.90;;;;;;5059252;28;20040;-74
2022/05/01 08:43:57;;;;;;;8.15;4.57;;;10.00;99.90;;;;;;5093928;28;20547;-75
2022/05/01 08:46:52;;;;;;;7.75;4.40;;;10.10;99.90;;;;;;5060202;28;20088;-74
2022/05/01 08:49:20;;;;;;;6.53;4.10;;;10.10;99.90;;;;;;5076180;28;20048;-74
2022/05/01 08:51:46;;;;;;;7.80;4.85;;;10.10;99.90;;;;;;5093928;28;20044;-74
2022/05/01 08:54:18;;;;;;;7.07;4.70;;;10.60;99.90;;;;;;5075870;28;20127;-74
2022/05/01 08:56:45;;;;;;;5.25;4.32;;;10.10;99.90;;;;;;5093791;28;20051;-74
2022/05/01 08:59:15;;;;;;;7.57;4.30;;;10.10;99.90;;;;;;5094661;28;20044;-74
2022/05/01 09:01:43;;;;;;;5.03;3.75;;;10.10;99.90;;;;;;5093313;28;20047;-75
2022/05/01 09:04:12;;;;;;;6.82;3.90;;;10.20;99.90;;;;;;5059546;28;20391;-75
2022/05/01 09:06:39;;;;;;;4.53;3.38;;;10.10;99.90;;;;;;5093806;28;20052;-75
2022/05/01 09:09:06;;;;;;;5.10;2.63;;;10.10;99.90;;;;;;5075965;28;20113;-75
2022/05/01 09:14:16;;;;;;;6.75;3.03;;;10.30;99.90;;;;;;5092621;28;20495;-73
2022/05/01 09:17:02;;;;;;;5.25;3.00;;;10.20;99.90;;;;;;5092509;28;20095;-73
2022/05/01 09:19:31;;;;;;;5.97;3.00;;;10.30;99.90;;;;;;5074232;28;20119;-73
2022/05/01 09:21:56;;;;;;;5.13;3.17;;;10.40;99.90;;;;;;5093177;28;20334;-72
2022/05/01 09:24:29;;;;;;;4.10;2.95;;;10.40;99.90;;;;;;5075139;28;20047;-72
2022/05/01 09:26:56;;;;;;;3.03;2.60;;;10.50;99.90;;;;;;5075761;28;20059;-73
2022/05/01 09:29:34;;;;;;;3.75;2.58;;;10.60;99.90;;;;;;5074685;28;20048;-73
2022/05/01 09:32:01;;;;;;;4.47;2.70;;;10.60;99.90;;;;;;5075229;28;20380;-72
2022/05/01 09:34:29;;;;;;;3.33;2.47;;;10.70;99.90;;;;;;5074562;28;20044;-73
2022/05/01 09:37:00;;;;;;;3.38;2.67;;;10.80;99.90;;;;;;5075345;28;20048;-72
2022/05/01 09:39:38;;;;;;;4.22;3.15;;;10.80;99.90;;;;;;5093060;28;20143;-72
2022/05/01 09:42:19;;;;;;;3.65;2.50;;;10.90;99.90;;;;;;5074792;28;20036;-72
2022/05/01 09:45:05;;;;;;;6.45;2.42;;;10.90;99.90;;;;;;5075789;28;20094;-73
2022/05/01 09:47:42;;;;;;;4.93;2.63;;;10.90;99.90;;;;;;5092987;28;20048;-73
2022/05/01 09:50:09;;;;;;;4.03;2.85;;;11.00;99.90;;;;;;5074959;28;20044;-72
2022/05/01 09:52:56;;;;;;;4.00;2.88;;;11.10;99.90;;;;;;5074869;28;20150;-72
2022/05/01 09:55:23;;;;;;;3.70;2.72;;;11.20;99.90;;;;;;5093051;28;20044;-72
2022/05/01 09:57:49;;;;;;;4.95;2.65;;;11.30;99.90;;;;;;5092246;28;20507;-72
2022/05/01 10:00:35;;;;;;;3.58;2.95;;;11.40;99.90;;;;;;5092645;28;20091;-73
2022/05/01 10:03:18;;;;;;;4.97;2.95;;;11.50;99.90;;;;;;5092907;28;20093;-73
2022/05/01 10:05:44;;;;;;;;;;;11.50;99.90;;;;;;5075619;28;20040;-72
2022/05/01 10:08:11;;;;;;;4.18;2.88;;;11.60;99.90;;;;;;5093095;28;19920;-76
2022/05/01 10:10:38;;;;;;;6.45;3.35;;;11.70;99.90;;;;;;5092320;28;20048;-73
2022/05/01 10:13:06;;;;;;;4.20;3.13;;;11.70;99.90;;;;;;5094914;28;20052;-74
2022/05/01 10:15:33;;;;;;;3.92;2.60;;;11.70;99.90;;;;;;5096321;28;20098;-72
2022/05/01 10:18:01;;;;;;;3.95;2.53;;;11.70;99.90;;;;;;5096654;28;20346;-72
2022/05/01 10:20:28;;;;;;;3.70;2.50;;;11.80;99.90;;;;;;5096073;28;20067;-72
2022/05/01 10:22:55;;;;;;;4.10;2.70;;;11.80;99.90;;;;;;5077965;28;20134;-73
2022/05/01 10:25:21;;;;;;;4.85;3.15;;;12.30;99.90;;;;;;5096535;28;20056;-73
2022/05/01 10:27:59;;;;;;;3.78;2.65;;;12.10;99.90;;;;;;5079356;28;20058;-72
2022/05/01 10:33:49;;;;;;;5.45;3.33;;;12.30;99.90;;;;;;5078682;28;20055;-73
2022/05/01 10:36:36;;;;;;;4.30;3.00;;;12.40;99.90;;;;;;5096507;28;20044;-73
2022/05/01 10:39:10;;;;;;;3.85;3.17;;;12.40;99.90;;;;;;5074831;28;20052;-73
2022/05/01 10:41:44;;;;;;;4.80;3.50;;;12.40;99.90;;;;;;5058436;28;20044;-73
2022/05/01 10:44:30;;;;;;;3.35;2.85;;;12.40;99.90;;;;;;5058504;28;20060;-73
2022/05/01 10:47:05;;;;;;;4.32;3.15;;;12.40;99.90;;;;;;5075940;28;20088;-72
2022/05/01 10:49:36;;;;;;;3.88;2.80;;;12.50;99.90;;;;;;5076431;28;20098;-73
2022/05/01 10:52:19;;;;;;;3.88;2.63;;;12.50;99.90;;;;;;5075626;28;20048;-73
2022/05/01 10:55:00;;;;;;;2.93;2.67;;;12.40;99.90;;;;;;5058942;28;20062;-72
2022/05/01 10:57:26;;;;;;;4.97;3.22;;;12.40;99.90;;;;;;5074955;28;20052;-72
2022/05/01 11:00:12;;;;;;;4.55;3.05;;;12.40;99.90;;;;;;5074643;28;20131;-72
2022/05/01 11:02:47;;;;;;;3.42;2.80;;;12.50;99.90;;;;;;5075732;28;20044;-73
2022/05/01 11:05:40;;;;;;;4.93;2.75;;;12.50;99.90;;;;;;5075868;28;20384;-73
2022/05/01 11:08:18;;;;;;;3.47;2.53;;;12.60;99.90;;;;;;5072351;28;20084;-72
2022/05/01 11:10:44;;;;;;;4.88;2.70;;;12.70;99.90;;;;;;5074805;28;20472;-72
2022/05/01 11:13:16;;;;;;;4.85;2.50;;;12.80;99.90;;;;;;5074308;28;20511;-72
2022/05/01 11:15:49;;;;;;;3.33;2.60;;;12.90;99.70;;;;;;5076135;28;20442;-71
2022/05/01 11:18:18;;;;;;;4.00;1.95;;;13.00;96.70;;;;;;5075506;28;20488;-72
2022/05/01 11:20:43;;;;;;;3.78;2.83;;;13.00;98.50;;;;;;5057663;28;20052;-71
2022/05/01 11:23:29;;;;;;;3.40;2.30;;;13.00;97.70;;;;;;5074869;28;20037;-72
2022/05/01 11:26:08;;;;;;;3.38;2.65;;;13.00;96.80;;;;;;5075094;28;20041;-72
2022/05/01 11:28:52;;;;;;;4.88;2.78;;;13.10;97.80;;;;;;5075098;28;20051;-72
2022/05/01 11:31:36;;;;;;;4.07;2.80;;;13.10;97.50;;;;;;5073679;28;20484;-72
2022/05/01 11:34:19;;;;;;;3.03;2.53;;;13.10;97.40;;;;;;5075095;28;20051;-72
2022/05/01 11:37:03;;;;;;;4.03;2.45;;;13.20;97.60;;;;;;5074909;28;20380;-72
2022/05/01 11:39:49;;;;;;;3.90;2.15;;;13.30;96.70;;;;;;5091954;28;20070;-72
2022/05/01 11:42:25;;;;;;;3.05;2.25;;;13.30;96.50;;;;;;5077277;28;20044;-73
2022/05/01 11:44:55;;;;;;;3.85;2.35;;;13.30;95.70;;;;;;5061269;28;20655;-72
2022/05/01 11:47:23;;;;;;;4.60;2.67;;;13.30;96.20;;;;;;5078080;28;20039;-73
2022/05/01 11:49:50;;;;;;;3.15;2.20;;;13.30;95.80;;;;;;5077195;28;20056;-72
2022/05/01 11:52:16;;;;;;;3.38;2.38;;;13.30;95.50;;;;;;5076860;28;20043;-72
2022/05/01 11:54:57;;;;;;;4.32;2.50;;;13.20;94.80;;;;;;5076831;28;20048;-72
2022/05/01 12:03:07;;;;;;;3.75;2.00;;;13.20;93.30;;;;;;5076885;28;20472;-72
2022/05/01 12:05:43;;;;;;;2.90;2.13;;;13.20;93.70;;;;;;5094710;28;20101;-72
2022/05/01 12:08:09;;;;;;;4.15;2.35;;;13.30;93.70;;;;;;5077171;28;20052;-72
2022/05/01 12:10:43;;;;;;;2.17;1.85;;;13.30;92.80;;;;;;5094647;28;20498;-72
2022/05/01 12:13:28;;;;;;;3.15;1.92;;;13.20;92.10;;;;;;5076725;28;20052;-72
2022/05/01 12:15:54;;;;;;;2.63;1.67;;;13.20;92.60;;;;;;5094205;28;20527;-72
2022/05/01 12:18:21;;;;;;;2.42;1.75;;;13.20;93.00;;;;;;5077453;28;20043;-72
2022/05/01 12:20:47;;;;;;;3.25;1.85;;;13.30;92.20;;;;;;5076892;28;20040;-72
2022/05/01 12:23:17;;;;;;;3.25;2.15;;;13.30;91.60;;;;;;5076339;28;20483;-72
2022/05/01 12:25:49;;;;;;;3.35;2.03;;;13.30;92.10;;;;;;5094699;28;20050;-73
2022/05/01 12:28:17;;;;;;;2.78;1.88;;;13.30;92.60;;;;;;5077572;28;20040;-72
2022/05/01 12:30:43;;;;;;;3.13;2.40;;;13.40;92.70;;;;;;5076541;28;20046;-72
2022/05/01 12:33:26;;;;;;;3.83;1.75;;;13.40;91.80;;;;;;5076163;28;20131;-72
2022/05/01 12:35:58;;;;;;;2.42;1.80;;;13.40;91.80;;;;;;5094403;28;20048;-72
2022/05/01 12:38:27;;;;;;;3.42;2.10;;;13.30;91.60;;;;;;5075876;28;20590;-72
2022/05/01 12:43:52;;;;;;;3.00;2.20;;;13.30;91.60;;;;;;5094837;28;20043;-72
2022/05/01 12:46:22;;;;;;;3.92;3.05;;;13.20;92.20;;;;;;5045284;28;20528;-72
2022/05/01 12:48:47;;;;;;;4.68;3.15;;;13.20;93.40;;;;;;5075945;28;20048;-72
2022/05/01 12:51:13;;;;;;;4.20;3.28;;;13.30;93.90;;;;;;5093982;28;20091;-72
2022/05/01 12:53:39;;;;;;;3.92;3.03;;;13.20;94.20;;;;;;5093975;28;20044;-73
2022/05/01 12:56:22;;;;;;;3.80;3.20;;;13.20;94.50;;;;;;5093596;28;20562;-71
2022/05/01 12:58:49;;;;;;;3.28;2.50;;;13.10;94.40;;;;;;5059696;28;20040;-73
2022/05/01 13:01:27;;;;;;;5.93;2.95;;;13.00;95.40;;;;;;5075740;28;20083;-72
2022/05/01 13:03:54;;;;;;;4.80;2.67;;;12.90;96.00;;;;;;5059322;28;20044;-73
2022/05/01 13:06:24;;;;;;;5.20;3.47;;;12.90;96.40;;;;;;5076817;28;20048;-73
2022/05/01 13:08:53;;;;;;;3.17;2.67;;;12.90;96.70;;;;;;5042794;28;20130;-72
2022/05/01 13:11:29;;;;;;;4.20;2.30;;;12.80;97.00;;;;;;5075944;28;20173;-72
2022/05/01 13:14:09;;;;;;;3.30;2.63;;;12.80;97.10;;;;;;5093979;28;20079;-73
2022/05/01 13:16:34;;;;;;;3.05;2.55;;;12.80;97.30;;;;;;5094017;28;20040;-72
2022/05/01 13:19:11;;;;;;;3.33;2.70;;;12.70;97.50;;;;;;5075843;28;20388;-72
2022/05/01 13:21:48;;;;;;;4.72;2.97;;;12.60;97.60;;;;;;5076520;28;20150;-72
2022/05/01 13:24:15;;;;;;;3.97;2.53;;;12.60;98.00;;;;;;5093649;28;20052;-72
2022/05/01 13:26:42;;;;;;;4.55;2.25;;;12.50;98.20;;;;;;5076010;28;20036;-72
2022/05/01 13:29:10;;;;;;;3.38;2.50;;;12.50;98.50;;;;;;5075580;28;20047;-73
2022/05/01 13:31:40;;;;;;;3.65;2.35;;;12.50;98.40;;;;;;5075762;28;20058;-73